Rainier, Oregon
Current Conditions -  °F | °C
As of 11:53 AM on Thursday 30 Oct 2014 (Local Time) from KSPB Reporting Station
Overcast Overcast  
Wind Chill: 59°   Ceiling: 7500
Heat Index: 59°   Visibility: 7mi
Dew Point: 55°   Wind: 0mph
Humidity: 87%   Direction: NA
Pressure: 29.84"   Gusts: NA
Location:  46.09°N, 122.94°W
Report Text: KSPB 301853Z AUTO 00000KT 7SM FEW041 BKN075 OVC085 15/13 A2984 RMK AO2 RAB19E31 SLP104 P0001 T01500128
Loading
Personal Weather Stations






























Interactive Weather Map
Tropical Storm Tracking
New forecast layout! Learn more

10-Day Weather Forecast

Advertisements
Track Severe Weather on mobile